Terminal Aerodrome Forecast
Issued by NWS Wichita, KS

Home | Current Version | Previous Version | Text Only | Print | Product List | Glossary On
Versions: 1 2 3 4 5 6 7 8 9 10 11 12 13 14 15 16 17 18 19 20 21 22 23 24 25 26 27 28 29
353
FTUS43 KICT 190640 AAB
TAFICT
TAF AMD
KICT 190640Z 1907/2006 18022G26KT P6SM OVC010 WS020/20050KT
      TEMPO 1907/1911 OVC007
     FM191100 19017G22KT P6SM BKN013
     FM191400 20017G26KT P6SM SCT010 BKN012
     FM191700 22013KT P6SM BKN035
     FM192200 18013KT P6SM VCSH BKN025
     FM200000 06009KT P6SM BKN040=

USA.gov is the U.S. government's official web portal to all federal, state and local government web resources and services.